Time;durP1;ratioP1;P1;durP2;ratioP2;P2;SDS_P1;SDS_P2;PMS_P1;PMS_P2;Temp;Humidity;BMP_temperature;BMP_pressure;BME280_temperature;BME280_humidity;BME280_pressure;Samples;Min_cycle;Max_cycle;Signal;HPM_P1;HPM_P2
2022/01/13 00:01:54;;;;;;;0.10;0.10;;;2.90;99.90;230.40;228845.00;;;;5070127;28;20198;-75
2022/01/13 00:04:23;;;;;;;0.10;0.10;;;2.80;99.90;230.40;228845.00;;;;5073802;28;20214;-75
2022/01/13 00:06:52;;;;;;;0.10;0.10;;;2.80;99.90;230.40;228845.00;;;;5071317;28;20583;-75
2022/01/13 00:09:21;;;;;;;0.10;0.10;;;2.80;99.90;230.40;228845.00;;;;5070970;28;20206;-75
2022/01/13 00:11:50;;;;;;;0.10;0.10;;;2.90;99.90;230.40;228845.00;;;;5072016;28;20240;-73
2022/01/13 00:14:41;;;;;;;0.10;0.10;;;2.80;99.90;230.40;228845.00;;;;5065816;28;20252;-74
2022/01/13 00:17:24;;;;;;;0.10;0.10;;;2.60;99.90;230.40;228845.00;;;;5069289;28;20201;-74
2022/01/13 00:20:28;;;;;;;0.10;0.10;;;2.60;99.90;230.40;228845.00;;;;5070881;28;20201;-74
2022/01/13 00:25:57;;;;;;;0.10;0.10;;;2.60;99.90;230.40;228845.00;;;;5068251;28;20247;-74
2022/01/13 00:28:25;;;;;;;0.10;0.10;;;2.60;99.90;230.40;228845.00;;;;5067388;28;20224;-73
2022/01/13 00:30:55;;;;;;;0.10;0.10;;;2.60;99.90;230.40;228845.00;;;;5068325;28;20190;-74
2022/01/13 00:33:25;;;;;;;0.10;0.10;;;2.60;99.90;230.40;228845.00;;;;5066885;28;20305;-74
2022/01/13 00:35:56;;;;;;;0.10;0.10;;;2.60;99.90;230.40;228845.00;;;;5066002;28;20222;-74
2022/01/13 00:38:26;;;;;;;0.10;0.10;;;2.60;99.90;230.40;228845.00;;;;5068940;28;20201;-75
2022/01/13 00:40:54;;;;;;;0.10;0.10;;;2.60;99.90;230.40;228845.00;;;;5068545;28;20677;-74
2022/01/13 00:43:22;;;;;;;0.10;0.10;;;2.60;99.90;230.40;228845.00;;;;5066232;28;20219;-73
2022/01/13 00:45:51;;;;;;;0.10;0.10;;;2.60;99.90;230.40;228845.00;;;;5062800;28;20256;-73
2022/01/13 00:48:19;;;;;;;0.10;0.10;;;2.50;99.90;230.40;228845.00;;;;5063547;28;20260;-73
2022/01/13 00:50:48;;;;;;;0.10;0.10;;;2.50;99.90;230.40;228845.00;;;;5066829;28;20193;-73
2022/01/13 00:53:16;;;;;;;0.10;0.10;;;2.40;99.90;230.40;228845.00;;;;5067890;28;20286;-74
2022/01/13 00:55:48;;;;;;;0.10;0.10;;;2.40;99.90;230.40;228845.00;;;;5066995;28;20240;-74
2022/01/13 00:58:18;;;;;;;0.20;0.20;;;2.40;99.90;230.40;228845.00;;;;5065678;28;20217;-73
2022/01/13 01:00:47;;;;;;;0.10;0.10;;;2.40;99.90;230.40;228845.00;;;;5069915;28;20556;-73
2022/01/13 01:03:15;;;;;;;0.10;0.10;;;2.40;99.90;230.40;228845.00;;;;5068503;28;20279;-74
2022/01/13 01:05:43;;;;;;;0.10;0.10;;;2.40;99.90;230.40;228845.00;;;;5066845;28;20272;-74
2022/01/13 01:08:12;;;;;;;0.10;0.10;;;2.30;99.90;230.40;228845.00;;;;5065939;28;20206;-74
2022/01/13 01:10:48;;;;;;;0.10;0.10;;;2.30;99.90;230.40;228845.00;;;;5069141;28;20194;-73
2022/01/13 01:13:22;;;;;;;0.10;0.10;;;2.30;99.90;230.40;228845.00;;;;5070284;28;20209;-74
2022/01/13 01:15:54;;;;;;;0.10;0.10;;;2.30;99.90;230.40;228845.00;;;;5066221;28;20204;-74
2022/01/13 01:18:32;;;;;;;0.10;0.10;;;2.30;99.90;230.40;228845.00;;;;5062242;28;20723;-75
2022/01/13 01:24:11;;;;;;;0.10;0.10;;;2.20;99.90;230.40;228845.00;;;;5062479;28;20287;-74
2022/01/13 01:26:44;;;;;;;0.10;0.10;;;2.20;99.90;230.40;228845.00;;;;5067458;28;20197;-73
2022/01/13 01:29:21;;;;;;;0.10;0.10;;;2.10;99.90;230.40;228845.00;;;;5068077;28;20197;-73
2022/01/13 01:31:54;;;;;;;0.10;0.10;;;2.10;99.90;230.40;228845.00;;;;5069166;28;20203;-73
2022/01/13 01:34:38;;;;;;;0.10;0.10;;;2.00;99.90;230.40;228845.00;;;;5066758;28;20229;-73
2022/01/13 01:37:13;;;;;;;0.10;0.10;;;2.00;99.90;230.40;228845.00;;;;5070360;28;20226;-73
2022/01/13 01:39:42;;;;;;;0.10;0.10;;;1.90;99.90;230.40;228845.00;;;;5071366;28;20684;-74
2022/01/13 01:42:12;;;;;;;0.17;0.17;;;1.90;99.90;230.40;228845.00;;;;5070046;28;20243;-73
2022/01/13 01:44:43;;;;;;;0.10;0.10;;;1.80;99.90;230.40;228845.00;;;;5066413;28;20263;-74
2022/01/13 01:47:14;;;;;;;0.10;0.10;;;1.80;99.90;230.40;228845.00;;;;5059090;28;20201;-74
2022/01/13 01:49:46;;;;;;;0.10;0.10;;;1.70;99.90;230.40;228845.00;;;;5063813;28;20182;-75
2022/01/13 01:52:18;;;;;;;0.10;0.10;;;1.60;99.90;230.40;228845.00;;;;5066747;28;20190;-74
2022/01/13 01:54:48;;;;;;;0.10;0.10;;;1.60;99.90;230.40;228845.00;;;;5066522;28;20605;-74
2022/01/13 01:57:20;;;;;;;0.10;0.10;;;1.50;99.90;230.40;228845.00;;;;5065680;28;20206;-74
2022/01/13 01:59:50;;;;;;;0.10;0.10;;;1.50;99.90;230.40;228845.00;;;;5067779;28;20213;-74
2022/01/13 02:02:18;;;;;;;0.10;0.10;;;1.50;99.90;230.40;228845.00;;;;5060653;28;20208;-74
2022/01/13 02:04:48;;;;;;;0.10;0.10;;;1.40;99.90;230.40;228845.00;;;;5065888;28;20207;-73
2022/01/13 02:07:17;;;;;;;0.10;0.10;;;1.40;99.90;230.40;228845.00;;;;5073110;28;20194;-73
2022/01/13 02:09:50;;;;;;;0.10;0.10;;;1.40;99.90;230.40;228845.00;;;;5076115;28;20611;-73
2022/01/13 02:12:33;;;;;;;0.10;0.10;;;1.40;99.90;230.40;228845.00;;;;5071686;28;20205;-73
2022/01/13 02:15:27;;;;;;;0.10;0.10;;;1.40;99.90;230.40;228845.00;;;;5066431;28;20214;-74
2022/01/13 02:17:54;;;;;;;0.10;0.10;;;1.40;99.90;230.40;228845.00;;;;5062241;28;20202;-74
2022/01/13 02:20:24;;;;;;;0.10;0.10;;;1.40;99.90;230.40;228845.00;;;;5060636;28;20213;-74
2022/01/13 02:22:52;;;;;;;0.10;0.10;;;1.30;99.90;230.40;228845.00;;;;5064432;28;20704;-74
2022/01/13 02:25:20;;;;;;;0.10;0.10;;;1.30;99.90;230.40;228845.00;;;;5065864;28;20232;-74
2022/01/13 02:27:48;;;;;;;0.10;0.10;;;1.40;99.90;230.40;228845.00;;;;5068222;28;20205;-73
2022/01/13 02:30:16;;;;;;;0.10;0.10;;;1.40;99.90;230.40;228845.00;;;;5065705;28;20194;-74
2022/01/13 02:32:45;;;;;;;0.20;0.20;;;1.50;99.90;230.40;228845.00;;;;5061109;28;20212;-73
2022/01/13 02:35:13;;;;;;;0.10;0.10;;;1.40;99.90;230.40;228845.00;;;;5063481;28;20220;-74
2022/01/13 02:37:43;;;;;;;0.10;0.10;;;1.40;99.90;230.40;228845.00;;;;5064739;28;20558;-74
2022/01/13 02:40:13;;;;;;;0.13;0.13;;;1.30;99.90;230.40;228845.00;;;;5066082;28;20197;-73
2022/01/13 02:42:41;;;;;;;0.10;0.10;;;1.20;99.90;230.40;228845.00;;;;5067272;28;20204;-74
2022/01/13 02:45:16;;;;;;;0.10;0.10;;;1.30;99.90;230.40;228845.00;;;;5061730;28;20198;-73
2022/01/13 02:48:13;;;;;;;0.10;0.10;;;1.30;99.90;230.40;228845.00;;;;5061857;28;20204;-74
2022/01/13 02:50:41;;;;;;;0.10;0.10;;;1.30;99.90;230.40;228845.00;;;;5065554;28;20201;-73
2022/01/13 02:53:11;;;;;;;0.10;0.10;;;1.20;99.90;230.40;228845.00;;;;5065994;28;20213;-74
2022/01/13 02:55:39;;;;;;;0.10;0.10;;;1.30;99.90;230.40;228845.00;;;;5066282;28;20194;-74
2022/01/13 02:58:07;;;;;;;0.20;0.20;;;1.30;99.90;230.40;228845.00;;;;5063896;28;20185;-74
2022/01/13 03:00:35;;;;;;;0.10;0.10;;;1.30;99.90;230.40;228845.00;;;;5066004;28;20977;-74
2022/01/13 03:03:05;;;;;;;0.10;0.10;;;1.30;99.90;230.40;228845.00;;;;5063396;28;20237;-74
2022/01/13 03:05:37;;;;;;;0.10;0.10;;;1.40;99.90;230.40;228845.00;;;;5065453;28;20205;-74
2022/01/13 03:08:06;;;;;;;0.10;0.10;;;1.40;99.90;230.40;228845.00;;;;5064597;28;20686;-74
2022/01/13 03:10:36;;;;;;;0.10;0.10;;;1.30;99.90;230.40;228845.00;;;;5065762;28;20190;-74
2022/01/13 03:13:06;;;;;;;0.10;0.10;;;1.30;99.90;230.40;228845.00;;;;5064077;28;20225;-73
2022/01/13 03:15:35;;;;;;;0.10;0.10;;;1.30;99.90;230.40;228845.00;;;;5068576;28;20202;-74
2022/01/13 03:18:03;;;;;;;0.10;0.10;;;1.30;99.90;230.40;228845.00;;;;5065365;28;20205;-74
2022/01/13 03:20:31;;;;;;;0.10;0.10;;;1.40;99.90;230.40;228845.00;;;;5068477;28;20216;-72
2022/01/13 03:23:02;;;;;;;0.17;0.17;;;1.30;99.90;230.40;228845.00;;;;5068391;28;20572;-74
2022/01/13 03:25:30;;;;;;;0.10;0.10;;;1.40;99.90;230.40;228845.00;;;;5068668;28;20194;-73
2022/01/13 03:28:05;;;;;;;0.10;0.10;;;1.40;99.90;230.40;228845.00;;;;5068951;28;20777;-73
2022/01/13 03:30:33;;;;;;;0.10;0.10;;;1.30;99.90;230.40;228845.00;;;;5068506;28;20218;-74
2022/01/13 03:33:02;;;;;;;0.10;0.10;;;1.30;99.90;230.40;228845.00;;;;5068651;28;20735;-73
2022/01/13 03:35:30;;;;;;;0.10;0.10;;;1.30;99.90;230.40;228845.00;;;;5069937;28;20221;-73
2022/01/13 03:37:59;;;;;;;0.20;0.20;;;1.30;99.90;230.40;228845.00;;;;5069543;28;20247;-73
2022/01/13 03:40:27;;;;;;;0.10;0.10;;;1.30;99.90;230.40;228845.00;;;;5068875;28;20198;-72
2022/01/13 03:42:56;;;;;;;0.10;0.10;;;1.30;99.90;230.40;228845.00;;;;5066320;28;20213;-73
2022/01/13 03:45:25;;;;;;;0.10;0.10;;;1.30;99.90;230.40;228845.00;;;;5067233;28;20199;-73
2022/01/13 03:47:53;;;;;;;0.10;0.10;;;1.30;99.90;230.40;228845.00;;;;5066023;28;20607;-73
2022/01/13 03:50:21;;;;;;;0.10;0.10;;;1.30;99.90;230.40;228845.00;;;;5066825;28;20241;-73
2022/01/13 03:54:04;;;;;;;0.10;0.10;;;1.30;99.90;230.40;228845.00;;;;5070606;28;20213;-72
2022/01/13 03:57:42;;;;;;;0.10;0.10;;;1.40;99.90;230.40;228845.00;;;;5065809;28;20279;-74
2022/01/13 04:01:24;;;;;;;0.20;0.20;;;1.30;99.90;230.40;228845.00;;;;5066199;28;20200;-74
2022/01/13 04:03:52;;;;;;;0.10;0.10;;;1.30;99.90;230.40;228845.00;;;;5068852;28;20372;-73
2022/01/13 04:06:40;;;;;;;0.10;0.10;;;1.30;99.90;230.40;228845.00;;;;5067106;28;20246;-72
2022/01/13 04:09:25;;;;;;;0.10;0.10;;;1.30;99.90;230.40;228845.00;;;;5068925;28;20695;-72
2022/01/13 04:11:53;;;;;;;0.10;0.10;;;1.30;99.90;230.40;228845.00;;;;5067212;28;20244;-73
2022/01/13 04:14:29;;;;;;;0.17;0.17;;;1.40;99.90;230.40;228845.00;;;;5066495;28;20233;-72
2022/01/13 04:16:58;;;;;;;0.10;0.10;;;1.40;99.90;230.40;228845.00;;;;5066208;28;20681;-73
2022/01/13 04:19:26;;;;;;;0.10;0.10;;;1.40;99.90;230.40;228845.00;;;;5065914;28;20190;-73
2022/01/13 04:21:54;;;;;;;0.10;0.10;;;1.40;99.90;230.40;228845.00;;;;5067906;28;20206;-74
2022/01/13 04:24:22;;;;;;;0.10;0.10;;;1.40;99.90;230.40;228845.00;;;;5067035;28;20221;-74
2022/01/13 04:26:53;;;;;;;0.10;0.10;;;1.40;99.90;230.40;228845.00;;;;5063706;28;20252;-75
2022/01/13 04:29:29;;;;;;;0.10;0.10;;;1.40;99.90;230.40;228845.00;;;;5067490;28;20186;-73
2022/01/13 04:31:59;;;;;;;0.10;0.10;;;1.40;99.90;230.40;228845.00;;;;5066692;28;20216;-74
2022/01/13 04:34:27;;;;;;;0.10;0.10;;;1.40;99.90;230.40;228845.00;;;;5062370;28;20707;-74
2022/01/13 04:36:56;;;;;;;0.10;0.10;;;1.40;99.90;230.40;228845.00;;;;5066726;28;20190;-75
2022/01/13 04:39:24;;;;;;;0.10;0.10;;;1.40;99.90;230.40;228845.00;;;;5066815;28;20185;-74
2022/01/13 04:41:54;;;;;;;0.10;0.10;;;1.40;99.90;230.40;228845.00;;;;5068202;28;20204;-76
2022/01/13 04:44:25;;;;;;;0.10;0.10;;;1.40;99.90;230.40;228845.00;;;;5064333;28;20218;-75
2022/01/13 04:46:55;;;;;;;0.10;0.10;;;1.30;99.90;230.40;228845.00;;;;5067891;28;20251;-74
2022/01/13 04:49:25;;;;;;;0.10;0.10;;;1.30;99.90;230.40;228845.00;;;;5066127;28;20198;-74
2022/01/13 04:51:54;;;;;;;0.10;0.10;;;1.30;99.90;230.40;228845.00;;;;5067538;28;20202;-73
2022/01/13 04:54:22;;;;;;;0.10;0.10;;;1.30;99.90;230.40;228845.00;;;;5064235;28;20271;-73
2022/01/13 04:57:06;;;;;;;0.10;0.10;;;1.30;99.90;230.40;228845.00;;;;5067079;28;20197;-72
2022/01/13 04:59:34;;;;;;;0.10;0.10;;;1.30;99.90;230.40;228845.00;;;;5066607;28;20527;-73
2022/01/13 05:02:02;;;;;;;0.10;0.10;;;1.30;99.90;230.40;228845.00;;;;5065215;28;20224;-73
2022/01/13 05:04:32;;;;;;;0.10;0.10;;;1.30;99.90;230.40;228845.00;;;;5062745;28;20302;-73
2022/01/13 05:07:00;;;;;;;0.10;0.10;;;1.30;99.90;230.40;228845.00;;;;5067460;28;20198;-74
2022/01/13 05:09:28;;;;;;;0.10;0.10;;;1.30;99.90;230.40;228845.00;;;;5067374;28;20198;-74
2022/01/13 05:11:56;;;;;;;0.10;0.10;;;1.30;99.90;230.40;228845.00;;;;5061796;28;20679;-73
2022/01/13 05:14:25;;;;;;;0.10;0.10;;;1.30;99.90;230.40;228845.00;;;;5067123;28;20236;-73
2022/01/13 05:16:59;;;;;;;0.10;0.10;;;1.30;99.90;230.40;228845.00;;;;5067195;28;20195;-73
2022/01/13 05:19:33;;;;;;;0.10;0.10;;;1.30;99.90;230.40;228845.00;;;;5066393;28;20221;-73
2022/01/13 05:22:17;;;;;;;0.10;0.10;;;1.30;99.90;230.40;228845.00;;;;5064940;28;20197;-73
2022/01/13 05:24:48;;;;;;;0.10;0.10;;;1.30;99.90;230.40;228845.00;;;;5066809;28;20213;-73
2022/01/13 05:27:19;;;;;;;0.10;0.10;;;1.30;99.90;230.40;228845.00;;;;5066971;28;20201;-73
2022/01/13 05:29:47;;;;;;;0.10;0.10;;;1.30;99.90;230.40;228845.00;;;;5064160;28;20200;-72
2022/01/13 05:32:15;;;;;;;0.10;0.10;;;1.20;99.90;230.40;228845.00;;;;5060371;28;20207;-73
2022/01/13 05:34:43;;;;;;;0.10;0.10;;;1.20;99.90;230.40;228845.00;;;;5062819;28;20279;-72
2022/01/13 05:37:13;;;;;;;0.10;0.10;;;1.30;99.90;230.40;228845.00;;;;5064211;28;20221;-72
2022/01/13 05:39:41;;;;;;;0.10;0.10;;;1.30;99.90;230.40;228845.00;;;;5065490;28;20205;-72
2022/01/13 05:42:09;;;;;;;0.10;0.10;;;1.30;99.90;230.40;228845.00;;;;5058698;28;20783;-73
2022/01/13 05:44:38;;;;;;;0.17;0.17;;;1.30;99.90;230.40;228845.00;;;;5065755;28;20272;-72
2022/01/13 05:47:10;;;;;;;0.10;0.10;;;1.40;99.90;230.40;228845.00;;;;5065836;28;20197;-72
2022/01/13 05:49:41;;;;;;;0.10;0.10;;;1.30;99.90;230.40;228845.00;;;;5064751;28;20247;-72
2022/01/13 05:52:11;;;;;;;0.10;0.10;;;1.30;99.90;230.40;228845.00;;;;5067005;28;20232;-71
2022/01/13 05:54:41;;;;;;;0.10;0.10;;;1.30;99.90;230.40;228845.00;;;;5067127;28;20341;-72
2022/01/13 05:57:09;;;;;;;0.10;0.10;;;1.30;99.90;230.40;228845.00;;;;5062394;28;20288;-73
2022/01/13 05:59:37;;;;;;;0.10;0.10;;;1.30;99.90;230.40;228845.00;;;;5064468;28;20193;-72
2022/01/13 06:02:06;;;;;;;0.10;0.10;;;1.30;99.90;230.40;228845.00;;;;5064051;28;20307;-72
2022/01/13 06:04:34;;;;;;;0.10;0.10;;;1.30;99.90;230.40;228845.00;;;;5063483;28;20292;-72
2022/01/13 06:07:02;;;;;;;0.13;0.13;;;1.30;99.90;230.40;228845.00;;;;5065364;28;20683;-72
2022/01/13 06:09:30;;;;;;;0.10;0.10;;;1.30;99.90;230.40;228845.00;;;;5064587;28;20618;-71
2022/01/13 06:12:02;;;;;;;0.10;0.10;;;1.30;99.90;230.40;228845.00;;;;5063395;28;20185;-72
2022/01/13 06:14:31;;;;;;;0.10;0.10;;;1.30;99.90;230.40;228845.00;;;;5062092;28;20228;-71
2022/01/13 06:16:59;;;;;;;0.10;0.10;;;1.30;99.90;230.40;228845.00;;;;5061402;28;20218;-72
2022/01/13 06:19:27;;;;;;;0.10;0.10;;;1.30;99.90;230.40;228845.00;;;;5066322;28;20695;-72
2022/01/13 06:21:55;;;;;;;0.10;0.10;;;1.30;99.90;230.40;228845.00;;;;5063237;28;20290;-72
2022/01/13 06:24:23;;;;;;;0.10;0.10;;;1.30;99.90;230.40;228845.00;;;;5065334;28;20284;-73
2022/01/13 06:26:51;;;;;;;0.10;0.10;;;1.30;99.90;230.40;228845.00;;;;5064055;28;20198;-73
2022/01/13 06:29:20;;;;;;;0.10;0.10;;;1.30;99.90;230.40;228845.00;;;;5065534;28;20247;-72
2022/01/13 06:31:48;;;;;;;0.10;0.10;;;1.30;99.90;230.40;228845.00;;;;5065783;28;20672;-73
2022/01/13 06:34:16;;;;;;;0.10;0.10;;;1.30;99.90;230.40;228845.00;;;;5063774;28;20213;-72
2022/01/13 06:36:44;;;;;;;0.10;0.10;;;1.30;99.90;230.40;228845.00;;;;5065885;28;20227;-72
2022/01/13 06:39:12;;;;;;;0.10;0.10;;;1.30;99.90;230.40;228845.00;;;;5066399;28;20205;-72
2022/01/13 06:41:44;;;;;;;0.10;0.10;;;1.30;99.90;230.40;228845.00;;;;5066371;28;20204;-75
2022/01/13 06:44:12;;;;;;;0.10;0.10;;;1.30;99.90;230.40;228845.00;;;;5066180;28;20576;-73
2022/01/13 06:46:41;;;;;;;0.10;0.10;;;1.30;99.90;230.40;228845.00;;;;5070547;28;20271;-73
2022/01/13 06:49:09;;;;;;;0.10;0.10;;;1.30;99.90;230.40;228845.00;;;;5073253;28;20189;-73
2022/01/13 06:51:37;;;;;;;0.10;0.10;;;1.30;99.90;230.40;228845.00;;;;5069345;28;20195;-72
2022/01/13 06:54:05;;;;;;;0.10;0.10;;;1.30;99.90;230.40;228845.00;;;;5071107;28;20205;-73
2022/01/13 06:56:33;;;;;;;0.10;0.10;;;1.30;99.90;230.40;228845.00;;;;5081180;28;20311;-73
2022/01/13 06:59:08;;;;;;;0.10;0.10;;;1.30;99.90;230.40;228845.00;;;;5071524;28;20202;-73
2022/01/13 07:01:36;;;;;;;0.10;0.10;;;1.30;99.90;230.40;228845.00;;;;5072894;28;20200;-73
2022/01/13 07:04:08;;;;;;;0.10;0.10;;;1.30;99.90;230.40;228845.00;;;;5076661;28;20224;-72
2022/01/13 07:06:37;;;;;;;0.10;0.10;;;1.30;99.90;230.40;228845.00;;;;5076148;28;20219;-73
2022/01/13 07:09:09;;;;;;;0.10;0.10;;;1.30;99.90;230.40;228845.00;;;;5074828;28;20210;-72
2022/01/13 07:11:37;;;;;;;0.20;0.20;;;1.30;99.90;230.40;228845.00;;;;5044954;28;20202;-73
2022/01/13 07:14:05;;;;;;;0.10;0.10;;;1.40;99.90;230.40;228845.00;;;;5050293;28;20233;-73
2022/01/13 07:16:34;;;;;;;0.10;0.10;;;1.40;99.90;230.40;228845.00;;;;5067891;28;20774;-73
2022/01/13 07:19:04;;;;;;;0.10;0.10;;;1.40;99.90;230.40;228845.00;;;;5072126;28;20197;-72
2022/01/13 07:21:34;;;;;;;0.10;0.10;;;1.40;99.90;230.40;228845.00;;;;5070979;28;20200;-72
2022/01/13 07:24:02;;;;;;;0.10;0.10;;;1.40;99.90;230.40;228845.00;;;;5072027;28;20225;-72
2022/01/13 07:26:30;;;;;;;0.10;0.10;;;1.40;99.90;230.40;228845.00;;;;5070460;28;20759;-72
2022/01/13 07:28:58;;;;;;;0.10;0.10;;;1.40;99.90;230.40;228845.00;;;;5071063;28;20251;-72
2022/01/13 07:31:28;;;;;;;0.10;0.10;;;1.40;99.90;230.40;228845.00;;;;5071841;28;20201;-73
2022/01/13 07:33:56;;;;;;;0.10;0.10;;;1.40;99.90;230.40;228845.00;;;;5068042;28;20213;-73
2022/01/13 07:36:24;;;;;;;0.10;0.10;;;1.50;99.90;230.40;228845.00;;;;5064822;28;20213;-73
2022/01/13 07:38:53;;;;;;;0.10;0.10;;;1.50;99.90;230.40;228845.00;;;;5070484;28;20197;-73
2022/01/13 07:41:21;;;;;;;0.10;0.10;;;1.50;99.90;230.40;228845.00;;;;5070738;28;20194;-73
2022/01/13 07:43:54;;;;;;;0.10;0.10;;;1.50;99.90;230.40;228845.00;;;;5072061;28;20209;-72
2022/01/13 07:46:23;;;;;;;0.10;0.10;;;1.50;99.90;230.40;228845.00;;;;5067801;28;20244;-73
2022/01/13 07:48:52;;;;;;;0.10;0.10;;;1.50;99.90;230.40;228845.00;;;;5063876;28;20673;-72
2022/01/13 07:51:20;;;;;;;0.10;0.10;;;1.60;99.90;230.40;228845.00;;;;5058010;28;20542;-73
2022/01/13 07:53:49;;;;;;;0.10;0.10;;;1.60;99.90;230.40;228845.00;;;;5044833;28;20211;-72
2022/01/13 07:56:18;;;;;;;0.10;0.10;;;1.60;99.90;230.40;228845.00;;;;5038898;28;20206;-73
2022/01/13 07:58:46;;;;;;;0.20;0.20;;;1.60;99.90;230.40;228845.00;;;;5041125;28;20201;-72
2022/01/13 08:01:14;;;;;;;0.10;0.10;;;1.60;99.90;230.40;228845.00;;;;5034256;28;20187;-73
2022/01/13 08:03:42;;;;;;;0.10;0.10;;;1.70;99.90;230.40;228845.00;;;;5033989;28;20215;-73
2022/01/13 08:06:11;;;;;;;0.10;0.10;;;1.60;99.90;230.40;228845.00;;;;5043590;28;20248;-75
2022/01/13 08:08:39;;;;;;;0.10;0.10;;;1.60;99.90;230.40;228845.00;;;;5052920;28;20229;-73
2022/01/13 08:11:09;;;;;;;0.10;0.10;;;1.60;99.90;230.40;228845.00;;;;5050920;28;20202;-73
2022/01/13 08:13:38;;;;;;;0.10;0.10;;;1.60;99.90;230.40;228845.00;;;;5064955;23;20231;-74
2022/01/13 08:16:09;;;;;;;0.10;0.10;;;1.60;99.90;230.40;228845.00;;;;5045291;28;20210;-75
2022/01/13 08:21:25;;;;;;;0.10;0.10;;;1.60;99.90;230.40;228845.00;;;;5053230;28;20206;-75
2022/01/13 08:23:53;;;;;;;0.10;0.10;;;1.70;99.90;230.40;228845.00;;;;5050380;28;20214;-75
2022/01/13 08:26:22;;;;;;;0.13;0.13;;;1.70;99.90;230.40;228845.00;;;;5032944;28;20199;-74
2022/01/13 08:28:51;;;;;;;0.10;0.10;;;1.70;99.90;230.40;228845.00;;;;5033405;28;20210;-75
2022/01/13 08:31:19;;;;;;;0.10;0.10;;;1.70;99.90;230.40;228845.00;;;;5033341;28;20287;-74
2022/01/13 08:33:47;;;;;;;0.15;0.15;;;1.70;99.90;230.40;228845.00;;;;5033097;28;20724;-74
2022/01/13 08:36:15;;;;;;;0.10;0.10;;;1.70;99.90;230.40;228845.00;;;;5033136;28;20195;-75
2022/01/13 08:38:43;;;;;;;0.10;0.10;;;1.70;99.90;230.40;228845.00;;;;5033003;28;20202;-75
2022/01/13 08:41:11;;;;;;;0.10;0.10;;;1.80;99.90;230.40;228845.00;;;;5025614;28;20199;-75
2022/01/13 08:43:39;;;;;;;0.10;0.10;;;1.80;99.90;230.40;228845.00;;;;5025355;28;20264;-75
2022/01/13 08:46:08;;;;;;;0.10;0.10;;;1.80;99.90;230.40;228845.00;;;;5025032;28;20196;-75
2022/01/13 08:48:37;;;;;;;0.10;0.10;;;1.80;99.90;230.40;228845.00;;;;5032085;28;20199;-75
2022/01/13 08:51:05;;;;;;;0.10;0.10;;;1.80;99.90;230.40;228845.00;;;;5032667;28;20188;-75
2022/01/13 08:53:33;;;;;;;0.10;0.10;;;1.80;99.90;230.40;228845.00;;;;5034307;28;20203;-75
2022/01/13 08:56:01;;;;;;;0.10;0.10;;;1.80;99.90;230.40;228845.00;;;;5032691;28;20266;-75
2022/01/13 08:58:29;;;;;;;0.10;0.10;;;1.80;99.90;230.40;228845.00;;;;5032477;28;20273;-75
2022/01/13 09:00:57;;;;;;;0.10;0.10;;;1.80;99.90;230.40;228845.00;;;;5014558;28;20203;-75
2022/01/13 09:03:26;;;;;;;0.10;0.10;;;1.80;99.90;230.40;228845.00;;;;5032778;28;20198;-75
2022/01/13 09:05:54;;;;;;;0.10;0.10;;;1.80;99.90;230.40;228845.00;;;;5032315;28;20261;-75
2022/01/13 09:08:22;;;;;;;0.10;0.10;;;1.90;99.90;230.40;228845.00;;;;5031716;28;20198;-74
2022/01/13 09:10:50;;;;;;;0.10;0.10;;;1.90;99.90;230.40;228845.00;;;;5032647;28;20199;-75
2022/01/13 09:13:18;;;;;;;0.15;0.15;;;1.90;99.90;230.40;228845.00;;;;5025015;28;20191;-75
2022/01/13 09:15:52;;;;;;;0.10;0.10;;;1.90;99.90;230.40;228845.00;;;;5032276;28;20273;-75
2022/01/13 09:18:32;;;;;;;0.10;0.10;;;2.00;99.90;230.40;228845.00;;;;5032352;28;20736;-75
2022/01/13 09:21:05;;;;;;;0.10;0.10;;;2.00;99.90;230.40;228845.00;;;;5032008;28;20610;-76
2022/01/13 09:23:36;;;;;;;0.10;0.10;;;2.00;99.90;230.40;228845.00;;;;5032221;28;20230;-75
2022/01/13 09:26:04;;;;;;;0.10;0.10;;;2.10;99.90;230.40;228845.00;;;;5032120;28;20203;-75
2022/01/13 09:28:34;;;;;;;0.10;0.10;;;2.10;99.90;230.40;228845.00;;;;5031748;28;20229;-75
2022/01/13 09:31:02;;;;;;;0.10;0.10;;;2.00;99.90;230.40;228845.00;;;;5032109;28;20241;-75
2022/01/13 09:33:30;;;;;;;0.10;0.10;;;2.10;99.90;230.40;228845.00;;;;5006454;28;20222;-75
2022/01/13 09:35:58;;;;;;;0.10;0.10;;;2.20;99.90;230.40;228845.00;;;;5031663;28;20257;-75
2022/01/13 09:38:28;;;;;;;0.10;0.10;;;2.20;99.90;230.40;228845.00;;;;5031552;28;20218;-75
2022/01/13 09:40:56;;;;;;;0.10;0.10;;;2.20;99.90;230.40;228845.00;;;;5032000;28;20245;-75
2022/01/13 09:43:28;;;;;;;0.10;0.10;;;2.30;99.90;230.40;228845.00;;;;5031879;28;20198;-75
2022/01/13 09:45:58;;;;;;;0.10;0.10;;;2.30;99.90;230.40;228845.00;;;;5031566;28;20198;-74
2022/01/13 09:48:28;;;;;;;0.10;0.10;;;2.40;99.90;230.40;228845.00;;;;5014474;28;20207;-75
2022/01/13 09:50:56;;;;;;;0.10;0.10;;;2.40;99.90;230.40;228845.00;;;;5030316;28;20245;-75
2022/01/13 09:53:24;;;;;;;0.20;0.20;;;2.50;99.90;230.40;228845.00;;;;5024189;28;20198;-75
2022/01/13 09:55:53;;;;;;;0.10;0.10;;;2.50;99.90;230.40;228845.00;;;;5031244;28;20215;-74
2022/01/13 09:58:21;;;;;;;0.10;0.10;;;2.60;99.90;230.40;228845.00;;;;5031353;28;20230;-75
2022/01/13 10:00:49;;;;;;;0.10;0.10;;;2.60;99.90;230.40;228845.00;;;;5031434;28;20652;-75
2022/01/13 10:03:23;;;;;;;0.10;0.10;;;2.70;99.90;230.40;228845.00;;;;5031232;28;20621;-75
2022/01/13 10:05:54;;;;;;;0.10;0.10;;;2.70;99.90;230.40;228845.00;;;;5031317;28;20219;-75
2022/01/13 10:08:23;;;;;;;0.10;0.10;;;2.80;99.90;230.40;228845.00;;;;5013128;28;20214;-75
2022/01/13 10:10:52;;;;;;;0.10;0.10;;;2.80;99.90;230.40;228845.00;;;;5024030;28;20191;-75
2022/01/13 10:13:33;;;;;;;0.10;0.10;;;2.80;99.90;230.40;228845.00;;;;5031369;28;20325;-74
2022/01/13 10:18:48;;;;;;;0.10;0.10;;;2.80;99.90;230.40;228845.00;;;;5030700;28;20292;-75
2022/01/13 10:21:19;;;;;;;0.10;0.10;;;2.80;99.90;230.40;228845.00;;;;5030894;28;20191;-75
2022/01/13 10:24:11;;;;;;;0.10;0.10;;;2.90;99.90;230.40;228845.00;;;;5031081;28;20249;-75
2022/01/13 10:26:58;;;;;;;0.10;0.10;;;3.00;99.90;230.40;228845.00;;;;5031672;28;20203;-75
2022/01/13 10:29:48;;;;;;;0.10;0.10;;;3.10;99.90;230.40;228845.00;;;;5031199;28;20266;-76
2022/01/13 10:32:20;;;;;;;0.10;0.10;;;3.10;99.90;230.40;228845.00;;;;5013608;28;20647;-75
2022/01/13 10:34:52;;;;;;;0.10;0.10;;;3.10;99.90;230.40;228845.00;;;;5031677;28;20214;-75
2022/01/13 10:37:28;;;;;;;0.10;0.10;;;3.20;99.90;230.40;228845.00;;;;5030984;28;20195;-75
2022/01/13 10:40:00;;;;;;;0.10;0.10;;;3.30;99.90;230.40;228845.00;;;;5031255;28;20183;-75
2022/01/13 10:43:07;;;;;;;0.10;0.10;;;3.30;99.90;230.40;228845.00;;;;5011822;28;20198;-75
2022/01/13 10:45:43;;;;;;;0.10;0.10;;;3.20;99.90;230.40;228845.00;;;;5027910;28;20316;-75
2022/01/13 10:48:15;;;;;;;0.10;0.10;;;3.30;99.90;230.40;228845.00;;;;5017110;28;20203;-75
2022/01/13 10:50:48;;;;;;;0.10;0.10;;;3.40;99.90;230.40;228845.00;;;;5031193;28;20257;-74
2022/01/13 10:53:22;;;;;;;0.10;0.10;;;3.40;99.90;230.40;228845.00;;;;5008463;28;20731;-75
2022/01/13 10:55:53;;;;;;;0.10;0.10;;;3.40;99.90;230.40;228845.00;;;;5031049;28;20234;-74
2022/01/13 10:58:27;;;;;;;0.10;0.10;;;3.40;99.90;230.40;228845.00;;;;5031497;28;20281;-75
2022/01/13 11:00:59;;;;;;;0.10;0.10;;;3.50;99.90;230.40;228845.00;;;;5031454;28;20195;-76
2022/01/13 11:03:31;;;;;;;0.10;0.10;;;3.50;99.90;230.40;228845.00;;;;5030534;28;20202;-76
2022/01/13 11:06:02;;;;;;;0.10;0.10;;;3.50;99.90;230.40;228845.00;;;;5030651;28;20203;-75
2022/01/13 11:08:38;;;;;;;0.10;0.10;;;3.50;99.90;230.40;228845.00;;;;5023833;28;20253;-76
2022/01/13 11:11:21;;;;;;;0.10;0.10;;;3.60;99.90;230.40;228845.00;;;;5031708;28;20231;-75
2022/01/13 11:13:56;;;;;;;0.10;0.10;;;3.60;99.90;230.40;228845.00;;;;5036938;28;20257;-75
2022/01/13 11:16:26;;;;;;;0.10;0.10;;;3.70;99.90;230.40;228845.00;;;;5038951;28;20867;-74
2022/01/13 11:18:55;;;;;;;0.10;0.10;;;3.70;99.90;230.40;228845.00;;;;5037212;28;20211;-75